createdAt,value
2022-12-18T00:02:03.155Z,28.70
2022-12-18T00:05:08.153Z,40.47
2022-12-18T00:08:11.797Z,32.03
2022-12-18T00:11:21.244Z,37.40
2022-12-18T00:14:26.052Z,35.92
2022-12-18T00:17:29.013Z,41.23
2022-12-18T00:20:32.226Z,32.53
2022-12-18T00:23:37.398Z,42.53
2022-12-18T00:26:41.351Z,52.87
2022-12-18T00:29:45.054Z,36.58
2022-12-18T00:32:48.143Z,23.67
2022-12-18T00:35:51.173Z,66.20
2022-12-18T00:38:58.728Z,38.53
2022-12-18T00:42:20.349Z,34.63
2022-12-18T00:45:29.721Z,36.42
2022-12-18T00:48:33.694Z,49.63
2022-12-18T00:51:37.560Z,41.65
2022-12-18T00:54:41.027Z,57.20
2022-12-18T00:57:44.848Z,41.27
2022-12-18T01:00:48.809Z,73.43
2022-12-18T01:03:52.200Z,48.83
2022-12-18T01:06:57.479Z,57.08
2022-12-18T01:10:00.895Z,67.35
2022-12-18T01:13:04.269Z,52.95
2022-12-18T01:16:07.761Z,62.75
2022-12-18T01:19:11.693Z,57.53
2022-12-18T01:22:14.787Z,60.70
2022-12-18T01:25:18.579Z,65.93
2022-12-18T01:28:21.598Z,50.03
2022-12-18T01:31:31.062Z,40.67
2022-12-18T01:34:36.225Z,64.13
2022-12-18T01:37:40.336Z,44.05
2022-12-18T01:40:44.574Z,67.10
2022-12-18T01:43:58.952Z,48.42
2022-12-18T01:47:02.950Z,62.40
2022-12-18T01:50:32.475Z,38.87
2022-12-18T01:53:35.894Z,35.75
2022-12-18T01:56:39.486Z,48.65
2022-12-18T01:59:47.519Z,62.37
2022-12-18T02:02:51.471Z,39.05
2022-12-18T02:06:14.474Z,63.55
2022-12-18T02:09:27.300Z,49.72
2022-12-18T02:13:04.918Z,79.57
2022-12-18T02:16:40.738Z,69.72
2022-12-18T02:20:00.901Z,74.60
2022-12-18T02:23:28.736Z,88.60
2022-12-18T02:26:40.193Z,67.97
2022-12-18T02:29:58.596Z,66.70
2022-12-18T02:33:08.543Z,54.20
2022-12-18T02:36:13.561Z,78.72
2022-12-18T02:39:19.983Z,84.90
2022-12-18T02:42:34.372Z,90.03
2022-12-18T02:45:55.904Z,59.72
2022-12-18T02:49:08.536Z,58.90
2022-12-18T02:52:35.939Z,58.20
2022-12-18T02:56:00.910Z,68.33
2022-12-18T02:59:15.436Z,39.15
2022-12-18T03:02:28.332Z,38.00
2022-12-18T03:05:58.288Z,65.00
2022-12-18T03:09:08.173Z,23.05
2022-12-18T03:12:24.268Z,43.63
2022-12-18T03:15:36.529Z,48.10
2022-12-18T03:18:49.265Z,53.92
2022-12-18T03:21:57.478Z,53.08
2022-12-18T03:25:05.736Z,63.05
2022-12-18T03:28:13.908Z,107.03
2022-12-18T03:31:19.313Z,104.88
2022-12-18T03:34:31.460Z,97.50
2022-12-18T03:37:38.968Z,92.53
2022-12-18T03:40:46.890Z,147.23
2022-12-18T03:43:54.074Z,121.63
2022-12-18T03:47:12.245Z,110.30
2022-12-18T03:50:24.680Z,123.60
2022-12-18T03:53:45.860Z,148.32
2022-12-18T03:56:55.950Z,123.65
2022-12-18T04:00:06.225Z,112.57
2022-12-18T04:03:22.695Z,113.07
2022-12-18T04:06:32.046Z,124.15
2022-12-18T04:09:40.586Z,109.87
2022-12-18T04:12:45.915Z,86.35
2022-12-18T04:15:51.077Z,90.30
2022-12-18T04:18:56.528Z,81.68
2022-12-18T04:22:01.649Z,65.60
2022-12-18T04:25:08.671Z,69.90
2022-12-18T04:28:15.871Z,60.67
2022-12-18T04:31:20.056Z,64.23
2022-12-18T04:34:24.061Z,72.95
2022-12-18T04:37:30.313Z,42.90
2022-12-18T04:40:33.565Z,54.47
2022-12-18T04:43:41.779Z,72.18
2022-12-18T04:46:45.701Z,75.15
2022-12-18T04:49:49.158Z,62.42
2022-12-18T04:52:52.294Z,68.45
2022-12-18T04:56:24.833Z,55.45
2022-12-18T04:59:27.919Z,68.47
2022-12-18T05:02:31.168Z,55.37
2022-12-18T05:05:36.874Z,65.13
2022-12-18T05:08:40.546Z,62.28
2022-12-18T05:11:44.873Z,49.08
2022-12-18T05:14:50.726Z,75.28
2022-12-18T05:17:54.476Z,67.60
2022-12-18T05:20:58.727Z,60.03
2022-12-18T05:24:02.081Z,73.67
2022-12-18T05:27:05.863Z,85.28
2022-12-18T05:30:10.079Z,72.68
2022-12-18T05:33:13.767Z,91.63
2022-12-18T05:36:16.934Z,133.37
2022-12-18T05:39:20.431Z,113.63
2022-12-18T05:42:25.286Z,66.28
2022-12-18T05:45:29.235Z,88.55
2022-12-18T05:48:32.999Z,70.77
2022-12-18T05:51:36.997Z,85.78
2022-12-18T05:54:41.180Z,94.97
2022-12-18T05:57:45.190Z,96.93
2022-12-18T06:00:49.045Z,99.07
2022-12-18T06:03:52.253Z,96.25
2022-12-18T06:06:56.308Z,96.43
2022-12-18T06:10:00.508Z,91.38
2022-12-18T06:13:04.572Z,86.25
2022-12-18T06:16:09.905Z,96.90
2022-12-18T06:19:17.398Z,80.17
2022-12-18T06:22:21.493Z,77.78
2022-12-18T06:25:25.307Z,97.10
2022-12-18T06:28:29.022Z,101.45
2022-12-18T06:31:32.746Z,100.03
2022-12-18T06:34:38.918Z,88.13
2022-12-18T06:37:42.338Z,74.47
2022-12-18T06:40:46.556Z,57.00
2022-12-18T06:43:51.666Z,96.63
2022-12-18T06:46:57.330Z,78.05
2022-12-18T06:50:00.414Z,83.23
2022-12-18T06:53:03.858Z,67.10
2022-12-18T06:56:10.695Z,88.00
2022-12-18T06:59:16.396Z,62.92
2022-12-18T07:02:20.372Z,78.43
2022-12-18T07:05:24.817Z,97.93
2022-12-18T07:08:30.236Z,85.45
2022-12-18T07:11:35.360Z,106.38
2022-12-18T07:14:38.503Z,71.43
2022-12-18T07:17:42.281Z,85.47
2022-12-18T07:20:45.932Z,82.17
2022-12-18T07:23:52.125Z,97.75
2022-12-18T07:26:55.112Z,90.38
2022-12-18T07:29:59.079Z,111.63
2022-12-18T07:33:02.247Z,107.97
2022-12-18T07:36:08.504Z,96.88
2022-12-18T07:39:14.135Z,107.32
2022-12-18T07:42:33.247Z,112.45
2022-12-18T07:45:36.375Z,95.60
2022-12-18T07:48:40.418Z,84.65
2022-12-18T07:51:44.038Z,91.05
2022-12-18T07:54:50.860Z,82.65
2022-12-18T07:57:57.775Z,111.03
2022-12-18T08:01:10.276Z,108.25
2022-12-18T08:04:14.698Z,120.20
2022-12-18T08:07:18.066Z,101.85
2022-12-18T08:10:22.099Z,87.50
2022-12-18T08:13:25.966Z,74.68
2022-12-18T08:16:29.942Z,96.80
2022-12-18T08:19:34.272Z,89.75
2022-12-18T08:22:39.574Z,80.93
2022-12-18T08:25:42.848Z,80.28
2022-12-18T08:28:45.953Z,93.50
2022-12-18T08:31:49.655Z,82.30
2022-12-18T08:34:53.432Z,82.97
2022-12-18T08:37:57.464Z,133.15
2022-12-18T08:41:02.053Z,51.88
2022-12-18T08:44:24.230Z,99.37
2022-12-18T08:47:27.642Z,96.63
2022-12-18T08:50:31.659Z,91.85
2022-12-18T08:53:36.185Z,99.57
2022-12-18T08:56:40.065Z,96.40
2022-12-18T08:59:43.397Z,105.45
2022-12-18T09:02:46.739Z,95.07
2022-12-18T09:05:50.477Z,102.32
2022-12-18T09:08:53.538Z,101.18
2022-12-18T09:11:56.903Z,127.65
2022-12-18T09:15:00.636Z,71.40
2022-12-18T09:18:04.691Z,128.68
2022-12-18T09:21:13.581Z,157.70
2022-12-18T09:24:18.232Z,84.97
2022-12-18T09:27:21.977Z,96.68
2022-12-18T09:30:26.094Z,121.97
2022-12-18T09:33:29.615Z,151.85
2022-12-18T09:36:32.657Z,167.30
2022-12-18T09:39:35.694Z,122.70
2022-12-18T09:42:38.977Z,122.00
2022-12-18T09:45:49.436Z,132.90
2022-12-18T09:48:54.306Z,132.95
2022-12-18T09:52:19.444Z,140.18
2022-12-18T09:55:41.441Z,158.10
2022-12-18T09:58:59.056Z,150.05
2022-12-18T10:02:18.104Z,158.90
2022-12-18T10:05:53.782Z,129.02
2022-12-18T10:09:11.841Z,169.03
2022-12-18T10:12:41.332Z,162.88
2022-12-18T10:15:47.031Z,170.60
2022-12-18T10:18:58.731Z,218.60
2022-12-18T10:22:19.735Z,170.05
2022-12-18T10:25:51.118Z,203.07
2022-12-18T10:28:57.692Z,148.55
2022-12-18T10:32:04.181Z,201.93
2022-12-18T10:35:22.775Z,123.18
2022-12-18T10:38:27.846Z,143.05
2022-12-18T10:41:32.472Z,263.10
2022-12-18T10:44:36.401Z,229.32
2022-12-18T10:47:48.250Z,222.32
2022-12-18T10:54:19.418Z,217.75
2022-12-18T10:57:43.084Z,198.55
2022-12-18T11:00:46.830Z,208.25
2022-12-18T11:04:01.841Z,203.18
2022-12-18T11:07:08.835Z,176.98
2022-12-18T11:10:19.619Z,157.38
2022-12-18T11:13:26.323Z,164.10
2022-12-18T11:16:32.380Z,125.38
2022-12-18T11:19:39.726Z,143.88
2022-12-18T11:22:42.899Z,183.10
2022-12-18T11:25:58.560Z,131.88
2022-12-18T11:29:18.696Z,136.73
2022-12-18T11:32:33.422Z,175.05
2022-12-18T11:35:53.848Z,408.65
2022-12-18T11:38:59.674Z,259.50
2022-12-18T11:42:45.997Z,271.92
2022-12-18T11:45:57.099Z,217.60
2022-12-18T11:49:06.350Z,319.17
2022-12-18T11:52:21.836Z,280.02
2022-12-18T11:55:37.745Z,333.08
2022-12-18T11:58:53.275Z,277.02
2022-12-18T12:02:17.112Z,228.50
2022-12-18T12:05:31.415Z,275.35
2022-12-18T12:09:11.526Z,154.97
2022-12-18T12:12:26.741Z,231.35
2022-12-18T12:16:08.356Z,165.45
2022-12-18T12:19:32.782Z,112.60
2022-12-18T12:22:42.754Z,237.10
2022-12-18T12:25:50.080Z,143.75
2022-12-18T12:29:09.230Z,240.27
2022-12-18T12:32:35.550Z,265.80
2022-12-18T12:36:15.011Z,226.18
2022-12-18T12:39:24.437Z,102.80
2022-12-18T12:42:45.615Z,147.67
2022-12-18T12:45:55.198Z,199.65
2022-12-18T12:49:03.126Z,104.68
2022-12-18T12:52:13.334Z,172.77
2022-12-18T12:55:35.852Z,219.07
2022-12-18T12:58:48.546Z,110.38
2022-12-18T13:02:01.059Z,224.75
2022-12-18T13:05:23.099Z,174.68
2022-12-18T13:08:35.446Z,156.85
2022-12-18T13:12:02.878Z,287.13
2022-12-18T13:15:25.031Z,179.97
2022-12-18T13:18:30.570Z,214.48
2022-12-18T13:21:37.046Z,162.93
2022-12-18T13:24:41.012Z,156.80
2022-12-18T13:27:45.242Z,130.75
2022-12-18T13:30:51.729Z,136.10
2022-12-18T13:34:31.157Z,186.15
2022-12-18T13:37:43.960Z,109.33
2022-12-18T13:40:50.172Z,226.05
2022-12-18T13:44:13.666Z,266.08
2022-12-18T13:47:39.530Z,65.20
2022-12-18T13:50:43.000Z,91.47
2022-12-18T13:53:53.166Z,81.75
2022-12-18T13:56:57.281Z,107.13
2022-12-18T14:00:18.424Z,113.95
2022-12-18T14:03:30.540Z,135.70
2022-12-18T14:06:34.621Z,128.52
2022-12-18T14:09:48.453Z,87.53
2022-12-18T14:13:01.009Z,137.60
2022-12-18T14:16:09.514Z,100.25
2022-12-18T14:19:17.402Z,87.67
2022-12-18T14:22:22.711Z,95.82
2022-12-18T14:25:28.148Z,136.98
2022-12-18T14:28:32.972Z,215.50
2022-12-18T14:31:35.970Z,189.07
2022-12-18T14:34:39.909Z,129.43
2022-12-18T14:37:43.585Z,242.35
2022-12-18T14:40:46.523Z,202.80
2022-12-18T14:43:52.036Z,225.93
2022-12-18T14:46:55.789Z,177.45
2022-12-18T14:49:59.878Z,210.87
2022-12-18T14:53:03.686Z,239.57
2022-12-18T14:56:19.726Z,172.10
2022-12-18T14:59:26.487Z,195.55
2022-12-18T15:02:31.059Z,134.15
2022-12-18T15:05:34.825Z,175.95
2022-12-18T15:08:38.998Z,151.35
2022-12-18T15:11:41.846Z,111.97
2022-12-18T15:14:45.664Z,167.57
2022-12-18T15:17:48.928Z,191.85
2022-12-18T15:20:58.511Z,103.20
2022-12-18T15:24:02.096Z,104.43
2022-12-18T15:27:05.246Z,124.75
2022-12-18T15:30:11.793Z,139.95
2022-12-18T15:33:26.262Z,78.70
2022-12-18T15:36:31.569Z,87.28
2022-12-18T15:39:34.678Z,75.07
2022-12-18T15:42:56.619Z,78.57
2022-12-18T15:45:59.775Z,73.22
2022-12-18T15:49:04.880Z,119.00
2022-12-18T15:52:13.190Z,133.43
2022-12-18T15:55:40.260Z,133.23
2022-12-18T15:58:44.675Z,95.18
2022-12-18T16:01:51.687Z,119.82
2022-12-18T16:04:55.716Z,84.80
2022-12-18T16:08:00.224Z,95.97
2022-12-18T16:11:04.172Z,180.95
2022-12-18T16:14:12.672Z,113.63
2022-12-18T16:17:16.878Z,133.80
2022-12-18T16:20:24.276Z,97.43
2022-12-18T16:23:29.066Z,122.83
2022-12-18T16:26:32.722Z,180.10
2022-12-18T16:29:36.672Z,159.55
2022-12-18T16:32:40.037Z,219.30
2022-12-18T16:35:43.886Z,150.02
2022-12-18T16:38:47.317Z,117.20
2022-12-18T16:41:51.406Z,246.75
2022-12-18T16:44:55.005Z,181.43
2022-12-18T16:47:58.636Z,149.60
2022-12-18T16:51:04.225Z,98.68
2022-12-18T16:54:10.914Z,144.23
2022-12-18T16:57:19.105Z,97.20
2022-12-18T17:00:22.180Z,145.98
2022-12-18T17:03:26.368Z,78.60
2022-12-18T17:06:33.444Z,104.90
2022-12-18T17:09:37.305Z,122.93
2022-12-18T17:12:40.636Z,89.95
2022-12-18T17:15:44.302Z,114.93
2022-12-18T17:18:48.024Z,129.63
2022-12-18T17:21:52.453Z,148.02
2022-12-18T17:24:55.741Z,248.23
2022-12-18T17:27:58.785Z,185.65
2022-12-18T17:31:02.857Z,122.70
2022-12-18T17:34:06.057Z,103.90
2022-12-18T17:37:10.160Z,149.93
2022-12-18T17:40:13.955Z,123.38
2022-12-18T17:43:17.099Z,129.00
2022-12-18T17:46:20.642Z,93.80
2022-12-18T17:49:24.785Z,111.05
2022-12-18T17:52:28.177Z,121.05
2022-12-18T17:55:32.376Z,84.07
2022-12-18T17:58:40.162Z,110.40
2022-12-18T18:01:45.455Z,180.95
2022-12-18T18:04:49.349Z,125.65
2022-12-18T18:07:52.316Z,185.85
2022-12-18T18:11:17.103Z,116.20
2022-12-18T18:14:21.877Z,89.88
2022-12-18T18:17:25.437Z,108.07
2022-12-18T18:20:30.952Z,135.82
2022-12-18T18:23:35.486Z,83.47
2022-12-18T18:26:39.671Z,92.03
2022-12-18T18:29:42.966Z,105.88
2022-12-18T18:32:45.890Z,171.00
2022-12-18T18:35:56.293Z,91.32
2022-12-18T18:39:01.150Z,78.82
2022-12-18T18:42:05.052Z,87.78
2022-12-18T18:45:09.313Z,137.65
2022-12-18T18:48:14.946Z,134.73
2022-12-18T18:51:21.154Z,124.97
2022-12-18T18:54:26.366Z,158.02
2022-12-18T18:57:30.707Z,107.43
2022-12-18T19:00:34.816Z,97.53
2022-12-18T19:03:39.417Z,78.38
2022-12-18T19:06:43.681Z,81.50
2022-12-18T19:09:52.438Z,52.88
2022-12-18T19:13:13.879Z,81.57
2022-12-18T19:16:19.557Z,103.50
2022-12-18T19:19:22.944Z,93.37
2022-12-18T19:22:26.107Z,128.57
2022-12-18T19:25:40.547Z,88.10
2022-12-18T19:28:45.822Z,64.17
2022-12-18T19:31:50.526Z,82.85
2022-12-18T19:34:54.532Z,137.43
2022-12-18T19:37:57.973Z,45.75
2022-12-18T19:41:04.665Z,77.43
2022-12-18T19:44:09.005Z,47.35
2022-12-18T19:47:13.278Z,70.05
2022-12-18T19:50:16.903Z,89.50
2022-12-18T19:53:20.325Z,62.15
2022-12-18T19:56:26.736Z,122.45
2022-12-18T19:59:29.906Z,89.77
2022-12-18T20:02:37.333Z,40.42
2022-12-18T20:05:40.470Z,63.65
